Time;durP1;ratioP1;P1;durP2;ratioP2;P2;SDS_P1;SDS_P2;PMS_P1;PMS_P2;Temp;Humidity;BMP_temperature;BMP_pressure;BME280_temperature;BME280_humidity;BME280_pressure;Samples;Min_cycle;Max_cycle;Signal;HPM_P1;HPM_P2
2024/02/15 00:01:20;;;;;;;8.85;6.32;;;;;;;8.25;60.72;100411.78;5030439;28;20033;-79
2024/02/15 00:03:46;;;;;;;9.23;6.40;;;;;;;8.10;60.77;100395.97;5027356;28;20473;-80
2024/02/15 00:06:11;;;;;;;9.50;5.85;;;;;;;8.23;59.86;100412.00;5019737;28;20112;-79
2024/02/15 00:08:37;;;;;;;10.98;5.68;;;;;;;8.29;60.12;100430.84;5010098;28;20037;-79
2024/02/15 00:11:02;;;;;;;8.63;5.40;;;;;;;8.39;60.28;100444.59;5025928;28;20029;-79
2024/02/15 00:13:28;;;;;;;11.02;5.95;;;;;;;8.23;60.36;100416.50;5026361;28;20029;-80
2024/02/15 00:15:53;;;;;;;8.57;5.30;;;;;;;8.31;60.50;100439.44;5015930;28;20211;-79
2024/02/15 00:18:19;;;;;;;9.05;5.22;;;;;;;8.25;60.10;100420.63;5019770;28;20028;-80
2024/02/15 00:20:45;;;;;;;9.88;6.10;;;;;;;8.37;60.15;100439.47;5023611;28;20674;-79
2024/02/15 00:23:10;;;;;;;9.73;5.88;;;;;;;8.38;60.06;100454.41;5031973;28;20045;-79
2024/02/15 00:25:36;;;;;;;9.27;5.70;;;;;;;8.28;60.61;100453.13;5028627;28;20033;-80
2024/02/15 00:28:01;;;;;;;9.25;6.20;;;;;;;8.34;60.14;100455.81;5029776;28;20733;-79
2024/02/15 00:30:27;;;;;;;9.07;5.93;;;;;;;8.20;60.67;100433.66;5029560;28;20029;-80
2024/02/15 00:32:53;;;;;;;11.50;6.15;;;;;;;8.40;60.13;100459.53;5028667;28;20147;-79
2024/02/15 00:35:19;;;;;;;10.18;6.28;;;;;;;8.29;59.28;100429.00;5029926;28;20096;-79
2024/02/15 00:37:45;;;;;;;8.38;5.40;;;;;;;8.32;59.58;100446.41;5029440;28;20049;-80
2024/02/15 00:40:11;;;;;;;9.55;5.90;;;;;;;8.18;60.73;100432.22;5029419;28;20076;-79
2024/02/15 00:42:37;;;;;;;8.15;6.03;;;;;;;8.15;61.32;100424.59;5028140;28;20034;-80
2024/02/15 00:45:04;;;;;;;9.65;5.80;;;;;;;8.32;60.44;100425.97;5027802;28;20403;-80
2024/02/15 00:47:30;;;;;;;9.63;6.25;;;;;;;8.19;60.84;100415.22;5027717;28;20115;-79
2024/02/15 00:49:55;;;;;;;9.38;5.68;;;;;;;8.43;60.10;100451.19;5017481;28;20025;-79
2024/02/15 00:52:21;;;;;;;8.93;5.68;;;;;;;8.29;60.21;100436.97;5027926;28;20032;-79
2024/02/15 00:54:47;;;;;;;10.13;6.47;;;;;;;8.08;60.60;100402.50;5029129;28;20120;-80
2024/02/15 00:57:12;;;;;;;9.57;6.07;;;;;;;8.29;61.19;100442.28;5029010;28;20056;-79
2024/02/15 00:59:37;;;;;;;11.02;6.07;;;;;;;8.51;59.64;100452.88;5029512;28;20026;-80
2024/02/15 01:02:03;;;;;;;12.07;7.07;;;;;;;8.50;60.38;100444.09;5027993;28;20072;-79
2024/02/15 01:04:29;;;;;;;10.95;7.20;;;;;;;8.36;60.41;100427.22;5039555;28;20025;-80
2024/02/15 01:06:55;;;;;;;12.65;7.38;;;;;;;8.31;59.94;100419.00;5047711;28;20033;-80
2024/02/15 01:09:23;;;;;;;12.95;7.05;;;;;;;8.44;60.27;100426.28;5049783;28;20642;-79
2024/02/15 01:11:49;;;;;;;13.15;8.20;;;;;;;8.26;60.22;100402.81;5032171;28;20040;-79
2024/02/15 01:14:15;;;;;;;13.05;7.55;;;;;;;8.15;61.22;100409.50;5025958;28;20517;-79
2024/02/15 01:16:41;;;;;;;13.55;8.43;;;;;;;8.32;61.14;100422.50;5027683;28;20398;-80
2024/02/15 01:19:07;;;;;;;12.95;7.55;;;;;;;8.48;60.20;100447.94;5028371;28;20042;-79
2024/02/15 01:21:33;;;;;;;18.48;8.93;;;;;;;8.20;61.32;100416.88;5029171;28;20030;-79
2024/02/15 01:24:00;;;;;;;21.30;10.23;;;;;;;8.29;61.88;100431.66;5028461;28;20041;-79
2024/02/15 01:26:26;;;;;;;20.10;9.32;;;;;;;8.16;61.84;100431.56;5013094;28;20022;-80
2024/02/15 01:28:51;;;;;;;17.88;8.65;;;;;;;8.04;63.09;100436.59;5013741;28;20083;-80
2024/02/15 01:31:16;;;;;;;13.05;7.65;;;;;;;8.12;61.80;100440.94;5021357;28;20486;-79
2024/02/15 01:33:44;;;;;;;13.38;7.55;;;;;;;8.02;63.36;100420.84;5028567;28;20022;-80
2024/02/15 01:36:17;;;;;;;13.82;7.18;;;;;;;8.08;63.07;100435.19;5013460;28;20045;-79
2024/02/15 01:38:43;;;;;;;11.65;7.38;;;;;;;8.01;63.44;100423.72;5007758;28;20141;-80
2024/02/15 01:41:08;;;;;;;10.45;7.18;;;;;;;8.02;63.58;100414.72;5015424;28;21078;-79
2024/02/15 01:43:35;;;;;;;10.45;7.30;;;;;;;8.13;64.39;100442.56;5028054;28;20041;-78
2024/02/15 01:46:06;;;;;;;10.77;7.25;;;;;;;8.04;64.10;100442.72;5027955;28;20050;-78
2024/02/15 01:48:32;;;;;;;13.50;7.95;;;;;;;7.96;65.55;100440.22;5008896;28;20096;-79
2024/02/15 01:50:58;;;;;;;13.70;8.52;;;;;;;7.97;63.85;100417.16;5020231;28;20484;-78
2024/02/15 01:53:25;;;;;;;16.17;7.78;;;;;;;7.76;64.09;100416.13;5038435;28;20069;-78
2024/02/15 01:55:54;;;;;;;11.23;7.68;;;;;;;7.65;65.56;100419.31;5030291;28;20060;-78
2024/02/15 01:58:19;;;;;;;12.15;6.90;;;;;;;7.61;65.93;100434.81;5028545;28;20530;-78
2024/02/15 02:00:45;;;;;;;11.23;6.75;;;;;;;7.59;66.08;100431.53;5026388;28;20116;-79
2024/02/15 02:03:14;;;;;;;11.90;7.53;;;;;;;7.49;67.49;100415.09;5028673;28;20041;-78
2024/02/15 02:05:40;;;;;;;11.10;7.75;;;;;;;7.70;66.51;100437.34;5028575;28;20030;-78
2024/02/15 02:08:09;;;;;;;13.35;6.93;;;;;;;7.64;67.14;100439.75;5028438;28;20599;-78
2024/02/15 02:10:36;;;;;;;11.00;6.63;;;;;;;7.64;67.72;100455.69;5028072;28;20032;-78
2024/02/15 02:13:02;;;;;;;12.68;7.57;;;;;;;7.47;68.96;100425.06;5027286;28;20072;-78
2024/02/15 02:15:28;;;;;;;10.57;6.80;;;;;;;7.70;68.10;100461.22;5027746;28;20644;-78
2024/02/15 02:17:54;;;;;;;10.25;7.22;;;;;;;7.65;67.34;100461.81;5027768;28;20021;-78
2024/02/15 02:20:19;;;;;;;10.45;7.10;;;;;;;7.51;67.71;100455.53;5028090;28;20025;-78
2024/02/15 02:22:48;;;;;;;10.95;7.07;;;;;;;7.64;68.58;100460.16;5017523;28;20041;-79
2024/02/15 02:25:13;;;;;;;10.20;6.82;;;;;;;7.43;68.98;100453.00;5019877;28;20120;-79
2024/02/15 02:27:39;;;;;;;11.95;6.95;;;;;;;7.59;68.29;100468.69;5026613;28;20128;-79
2024/02/15 02:30:14;;;;;;;10.27;6.47;;;;;;;7.42;68.74;100462.81;5027802;28;20018;-78
2024/02/15 02:32:43;;;;;;;10.40;7.05;;;;;;;7.25;69.29;100456.06;5027875;28;20034;-79
2024/02/15 02:35:11;;;;;;;11.25;7.38;;;;;;;7.16;69.53;100451.91;5024955;28;20032;-78
2024/02/15 02:37:37;;;;;;;11.20;7.05;;;;;;;6.77;70.46;100443.28;5027547;28;20450;-78
2024/02/15 02:40:05;;;;;;;11.15;7.22;;;;;;;7.03;70.78;100463.19;5028280;28;20030;-78
2024/02/15 02:42:30;;;;;;;10.15;6.68;;;;;;;7.18;70.46;100458.66;5028059;28;20041;-79
2024/02/15 02:44:55;;;;;;;10.02;6.80;;;;;;;7.02;70.78;100445.63;5029877;28;20033;-78
2024/02/15 02:47:21;;;;;;;12.45;7.00;;;;;;;7.06;70.17;100446.88;5028599;28;20445;-79
2024/02/15 02:49:47;;;;;;;12.05;8.05;;;;;;;6.92;71.19;100467.13;5013165;28;20852;-79
2024/02/15 02:52:12;;;;;;;11.73;7.35;;;;;;;6.96;71.16;100451.66;5018159;28;20172;-80
2024/02/15 02:54:38;;;;;;;9.38;6.65;;;;;;;6.82;69.92;100435.63;5030563;28;20033;-79
2024/02/15 02:57:06;;;;;;;10.05;7.55;;;;;;;6.91;70.18;100464.69;5027561;28;20037;-79
2024/02/15 02:59:32;;;;;;;;;;;;;;;6.83;70.63;100469.06;5028955;28;20030;-80
2024/02/15 03:01:58;;;;;;;10.25;7.43;;;;;;;6.75;70.26;100463.84;5030224;28;19984;-79
2024/02/15 03:04:23;;;;;;;9.77;7.15;;;;;;;6.47;70.45;100426.56;5035731;28;20041;-79
2024/02/15 03:06:49;;;;;;;10.90;7.72;;;;;;;6.19;71.84;100452.84;5041256;28;20025;-79
2024/02/15 03:09:15;;;;;;;11.88;7.32;;;;;;;6.10;72.67;100468.00;5038613;28;20029;-79
2024/02/15 03:11:40;;;;;;;10.50;7.05;;;;;;;5.91;73.20;100449.97;5038890;28;20182;-79
2024/02/15 03:14:06;;;;;;;12.13;7.38;;;;;;;5.87;73.09;100438.91;5039171;28;20039;-78
2024/02/15 03:16:32;;;;;;;11.82;7.50;;;;;;;5.88;73.81;100437.88;5052475;28;20405;-79
2024/02/15 03:18:57;;;;;;;11.02;7.80;;;;;;;5.91;72.33;100447.31;5056140;28;20115;-79
2024/02/15 03:21:23;;;;;;;10.35;7.43;;;;;;;5.80;74.56;100453.84;5038782;28;20093;-80
2024/02/15 03:23:48;;;;;;;10.48;7.00;;;;;;;5.72;73.02;100422.16;5041255;28;20511;-79
2024/02/15 03:26:14;;;;;;;10.13;7.00;;;;;;;5.48;74.54;100437.22;5043201;28;20048;-80
2024/02/15 03:28:39;;;;;;;12.75;7.97;;;;;;;6.28;72.93;100469.50;5039779;28;20085;-79
2024/02/15 03:31:05;;;;;;;11.88;7.80;;;;;;;6.01;73.27;100469.91;5038263;28;20043;-79
2024/02/15 03:33:34;;;;;;;12.25;8.63;;;;;;;6.04;72.67;100439.59;5037862;28;20115;-80
2024/02/15 03:36:00;;;;;;;10.40;7.43;;;;;;;6.29;71.74;100471.97;5037365;28;20060;-79
2024/02/15 03:38:26;;;;;;;11.00;7.10;;;;;;;5.98;72.81;100454.38;5036988;28;20025;-79
2024/02/15 03:40:52;;;;;;;12.38;7.68;;;;;;;6.00;72.68;100447.06;5033733;28;20522;-78
2024/02/15 03:43:17;;;;;;;11.68;7.97;;;;;;;6.02;73.43;100470.72;5034112;28;20026;-79
2024/02/15 03:45:44;;;;;;;13.32;8.00;;;;;;;5.76;73.22;100444.59;5032641;28;20048;-79
2024/02/15 03:48:10;;;;;;;10.57;7.50;;;;;;;5.59;75.45;100487.06;5032658;28;20052;-80
2024/02/15 03:50:35;;;;;;;11.05;7.32;;;;;;;5.81;74.45;100480.13;5031838;28;20057;-80
2024/02/15 03:53:01;;;;;;;12.82;8.40;;;;;;;5.82;74.08;100470.34;5028796;28;20090;-80
2024/02/15 03:55:26;;;;;;;12.88;8.63;;;;;;;5.68;75.03;100465.84;5031495;28;20045;-80
2024/02/15 03:57:52;;;;;;;12.10;7.18;;;;;;;5.70;75.06;100462.03;5031788;28;20032;-79
2024/02/15 04:00:20;;;;;;;14.52;7.90;;;;;;;5.74;74.48;100467.78;5029480;28;20067;-78
2024/02/15 04:02:47;;;;;;;11.43;7.75;;;;;;;5.51;75.20;100479.19;5029231;28;20017;-79
2024/02/15 04:05:13;;;;;;;12.02;7.28;;;;;;;5.43;76.19;100464.22;5030382;28;20036;-78
2024/02/15 04:07:38;;;;;;;13.43;8.00;;;;;;;5.79;75.23;100476.03;5028379;28;20026;-79
2024/02/15 04:10:04;;;;;;;11.63;8.00;;;;;;;5.55;75.03;100463.78;5030664;28;20112;-79
2024/02/15 04:12:31;;;;;;;13.07;8.05;;;;;;;5.71;75.08;100484.03;5030496;28;20498;-79
2024/02/15 04:15:00;;;;;;;12.35;7.97;;;;;;;5.68;75.85;100481.72;5030493;28;20045;-79
2024/02/15 04:17:25;;;;;;;13.35;7.63;;;;;;;5.52;77.85;100491.44;5030106;28;20037;-78
2024/02/15 04:19:53;;;;;;;13.75;8.05;;;;;;;5.15;77.18;100463.03;5029036;28;20033;-79
2024/02/15 04:22:18;;;;;;;13.30;8.20;;;;;;;5.33;78.35;100481.28;5029276;28;20040;-79
2024/02/15 04:24:45;;;;;;;12.05;7.53;;;;;;;5.30;76.63;100471.88;5028913;28;20037;-79
2024/02/15 04:27:11;;;;;;;12.52;7.93;;;;;;;5.38;76.89;100495.63;5030701;28;20025;-79
2024/02/15 04:29:40;;;;;;;13.90;8.55;;;;;;;5.53;77.00;100479.00;5030049;28;20056;-79
2024/02/15 04:32:11;;;;;;;12.18;8.27;;;;;;;5.47;77.18;100504.34;5022409;28;20512;-79
2024/02/15 04:34:37;;;;;;;12.88;8.20;;;;;;;5.15;78.76;100498.25;5028685;28;20403;-79
2024/02/15 04:37:09;;;;;;;11.82;7.88;;;;;;;5.33;77.51;100486.56;5032348;28;20036;-78
2024/02/15 04:39:38;;;;;;;14.32;8.63;;;;;;;5.13;79.30;100497.59;5030169;28;20029;-79
2024/02/15 04:42:06;;;;;;;13.30;8.15;;;;;;;4.93;80.64;100483.16;5029696;28;20392;-79
2024/02/15 04:44:34;;;;;;;12.77;7.53;;;;;;;5.04;79.68;100451.03;5029494;28;20029;-79
2024/02/15 04:47:00;;;;;;;13.20;7.90;;;;;;;5.41;78.56;100465.38;5029501;28;20094;-78
2024/02/15 04:49:28;;;;;;;12.30;7.88;;;;;;;5.35;79.86;100489.88;5029706;28;20140;-78
2024/02/15 04:51:54;;;;;;;13.27;8.23;;;;;;;5.36;79.32;100500.28;5029901;28;20034;-78
2024/02/15 04:54:20;;;;;;;14.95;8.30;;;;;;;5.40;78.13;100485.72;5025176;28;20063;-79
2024/02/15 04:56:45;;;;;;;12.07;7.30;;;;;;;5.23;79.02;100481.50;5032224;28;20430;-79
2024/02/15 04:59:17;;;;;;;13.00;7.90;;;;;;;5.45;78.65;100519.56;5028275;28;20470;-79
2024/02/15 05:01:42;;;;;;;11.63;7.43;;;;;;;5.42;78.88;100507.50;5029273;28;20026;-79
2024/02/15 05:04:12;;;;;;;12.50;7.57;;;;;;;5.63;77.20;100514.81;5027668;28;20025;-79
2024/02/15 05:06:38;;;;;;;11.55;7.35;;;;;;;5.29;76.86;100486.13;5027741;28;20025;-79
2024/02/15 05:09:07;;;;;;;12.30;7.88;;;;;;;5.15;79.47;100511.47;5029019;28;20156;-78
2024/02/15 05:11:36;;;;;;;11.20;7.30;;;;;;;5.43;78.79;100524.19;5029087;28;20033;-78
2024/02/15 05:14:04;;;;;;;11.55;7.70;;;;;;;5.46;77.96;100497.41;5027805;28;20113;-79
2024/02/15 05:16:31;;;;;;;14.02;8.25;;;;;;;5.57;77.40;100507.59;5028932;28;20060;-79
2024/02/15 05:18:57;;;;;;;14.27;7.97;;;;;;;5.46;78.72;100500.06;5027805;28;20034;-79
2024/02/15 05:21:22;;;;;;;18.50;10.82;;;;;;;5.64;78.02;100527.06;5028586;28;20032;-79
2024/02/15 05:23:48;;;;;;;17.92;11.70;;;;;;;5.85;77.45;100528.25;5035777;28;20491;-78
2024/02/15 05:26:16;;;;;;;32.45;28.15;;;;;;;5.97;76.28;100529.50;5046737;28;20108;-79
2024/02/15 05:28:41;;;;;;;123.60;63.78;;;;;;;5.79;76.80;100523.66;5027738;28;20557;-79
2024/02/15 05:31:25;;;;;;;58.10;36.15;;;;;;;5.84;76.97;100535.38;5029211;28;20041;-81
2024/02/15 05:33:53;;;;;;;33.85;25.60;;;;;;;5.91;76.66;100524.91;5029297;28;20025;-78
2024/02/15 05:36:21;;;;;;;21.83;15.98;;;;;;;5.71;77.13;100527.19;5028672;28;20040;-81
2024/02/15 05:38:48;;;;;;;21.83;16.50;;;;;;;5.95;77.10;100523.56;5028472;28;20029;-78
2024/02/15 05:41:13;;;;;;;30.08;18.98;;;;;;;6.07;76.57;100546.97;5027380;28;20524;-78
2024/02/15 05:43:41;;;;;;;51.28;36.58;;;;;;;5.98;76.74;100533.78;5027075;28;20033;-79
2024/02/15 05:46:07;;;;;;;24.40;19.23;;;;;;;6.06;76.97;100547.97;5028836;28;20035;-79
2024/02/15 05:48:36;;;;;;;22.63;16.60;;;;;;;6.01;77.48;100544.03;5030966;28;20045;-79
2024/02/15 05:51:06;;;;;;;21.02;15.07;;;;;;;6.24;76.50;100564.38;5026951;28;20483;-80
2024/02/15 05:53:38;;;;;;;17.45;11.32;;;;;;;6.19;76.17;100561.44;5025070;28;20478;-80
2024/02/15 05:56:08;;;;;;;19.13;12.15;;;;;;;6.24;75.29;100545.84;5028318;28;20034;-80
2024/02/15 05:58:34;;;;;;;22.55;13.82;;;;;;;6.35;74.78;100540.09;5026642;28;20483;-79
2024/02/15 06:01:04;;;;;;;26.20;17.48;;;;;;;6.44;74.87;100560.25;5028287;28;20021;-80
2024/02/15 06:03:34;;;;;;;21.27;16.10;;;;;;;6.28;76.06;100570.97;5028268;28;20029;-80
2024/02/15 06:06:06;;;;;;;26.05;15.68;;;;;;;6.40;75.57;100558.94;5027525;28;20021;-79
2024/02/15 06:08:32;;;;;;;20.20;13.07;;;;;;;6.37;76.23;100571.72;5028138;28;20476;-79
2024/02/15 06:10:58;;;;;;;14.95;9.48;;;;;;;6.47;76.39;100547.63;5028376;28;20034;-79
2024/02/15 06:13:25;;;;;;;14.85;9.30;;;;;;;6.41;76.54;100557.94;5028117;28;20079;-79
2024/02/15 06:15:54;;;;;;;13.05;8.77;;;;;;;6.70;75.92;100566.97;5025924;28;20041;-79
2024/02/15 06:18:24;;;;;;;13.95;8.57;;;;;;;6.88;74.56;100577.19;5028238;28;20082;-79
2024/02/15 06:20:50;;;;;;;15.77;9.30;;;;;;;7.28;73.08;100592.84;5028210;28;20024;-79
2024/02/15 06:23:17;;;;;;;13.80;8.50;;;;;;;7.36;70.51;100584.78;5026523;28;20497;-79
2024/02/15 06:25:43;;;;;;;24.23;15.98;;;;;;;7.36;69.27;100584.78;5027826;28;20848;-79
2024/02/15 06:41:49;;;;;;;33.88;30.52;;;;;;;7.67;68.83;100604.97;5010094;28;20943;-79
2024/02/15 06:44:14;;;;;;;15.38;9.38;;;;;;;7.87;67.60;100598.03;5011326;28;20116;-79
2024/02/15 06:46:41;;;;;;;14.45;8.88;;;;;;;8.09;66.55;100611.31;5027721;28;20108;-80
2024/02/15 06:49:06;;;;;;;18.58;12.23;;;;;;;7.96;67.37;100604.88;5029718;28;20041;-79
2024/02/15 06:51:32;;;;;;;12.30;9.00;;;;;;;8.25;65.75;100637.66;5027188;28;20029;-81
2024/02/15 06:53:57;;;;;;;27.30;19.23;;;;;;;7.98;66.58;100616.13;5020333;28;20045;-79
2024/02/15 06:56:22;;;;;;;16.80;11.77;;;;;;;7.94;66.02;100608.72;5025928;28;20137;-79
2024/02/15 06:58:49;;;;;;;13.02;9.15;;;;;;;8.05;66.87;100622.34;5029895;28;20581;-79
2024/02/15 07:01:16;;;;;;;14.07;9.95;;;;;;;7.99;66.32;100596.53;5011898;28;20113;-79
2024/02/15 07:03:44;;;;;;;12.65;9.07;;;;;;;8.04;68.08;100614.56;5007813;28;20030;-79
2024/02/15 07:06:10;;;;;;;;;;;;;;;8.15;66.73;100622.03;5023262;28;20033;-79
2024/02/15 07:08:35;;;;;;;14.80;13.02;;;;;;;8.33;65.71;100628.72;5026665;28;19917;-78
2024/02/15 07:11:02;;;;;;;13.10;8.80;;;;;;;8.62;65.06;100622.47;5027190;28;20025;-79
2024/02/15 07:13:29;;;;;;;;;;;;;;;8.84;64.28;100632.03;5028164;28;20029;-79
2024/02/15 07:15:54;;;;;;;12.00;8.77;;;;;;;8.79;64.68;100605.22;5032246;28;19921;-79
2024/02/15 07:18:22;;;;;;;12.43;8.05;;;;;;;8.80;62.33;100596.22;5036248;28;20643;-79
2024/02/15 07:20:47;;;;;;;16.05;9.15;;;;;;;8.91;63.83;100612.66;5041996;28;20087;-79
2024/02/15 07:23:13;;;;;;;12.88;8.57;;;;;;;9.16;62.16;100629.00;5047022;28;20032;-79
2024/02/15 07:25:39;;;;;;;14.50;8.68;;;;;;;9.00;60.65;100582.25;5032896;28;20111;-79
2024/02/15 07:28:05;;;;;;;14.02;8.18;;;;;;;9.50;60.69;100612.19;5027499;28;20026;-79
2024/02/15 07:30:31;;;;;;;13.50;8.38;;;;;;;9.32;59.29;100579.97;5027028;28;20064;-80
2024/02/15 07:32:57;;;;;;;12.68;7.82;;;;;;;9.58;60.38;100601.38;5026697;28;20022;-79
2024/02/15 07:35:24;;;;;;;13.85;9.48;;;;;;;9.80;58.98;100614.53;5017507;28;20455;-79
2024/02/15 07:37:58;;;;;;;13.57;9.02;;;;;;;10.12;57.19;100625.50;5016621;28;20029;-79
2024/02/15 07:40:28;;;;;;;12.70;7.93;;;;;;;10.05;54.60;100618.31;5015985;28;20120;-79
2024/02/15 07:42:56;;;;;;;17.63;10.65;;;;;;;9.94;55.33;100610.06;5022661;28;20040;-79
2024/02/15 07:45:21;;;;;;;11.77;7.47;;;;;;;9.97;54.15;100621.16;5016228;28;20049;-79
2024/02/15 07:47:48;;;;;;;16.13;8.95;;;;;;;10.11;54.35;100615.84;5015600;28;20041;-79
2024/02/15 07:50:22;;;;;;;16.13;10.05;;;;;;;10.04;54.82;100629.97;5022328;28;20052;-78
2024/02/15 07:52:49;;;;;;;15.55;9.27;;;;;;;10.25;54.25;100620.19;5029775;28;20120;-79
2024/02/15 07:55:15;;;;;;;13.75;7.72;;;;;;;10.00;53.42;100607.41;5025468;28;20521;-79
2024/02/15 07:57:40;;;;;;;11.93;7.35;;;;;;;9.93;53.56;100627.06;5021075;28;20026;-79
2024/02/15 08:00:11;;;;;;;12.90;7.45;;;;;;;10.06;54.07;100614.59;5023275;28;20129;-79
2024/02/15 08:02:42;;;;;;;14.63;7.75;;;;;;;10.05;53.26;100612.97;5020924;28;20072;-79
2024/02/15 08:05:12;;;;;;;11.18;6.90;;;;;;;10.15;53.74;100625.06;5020177;28;20026;-79
2024/02/15 08:07:42;;;;;;;13.95;8.50;;;;;;;10.38;53.99;100612.25;5018066;28;20084;-78
2024/02/15 08:10:12;;;;;;;15.35;8.43;;;;;;;10.71;52.60;100614.09;5026607;28;20069;-79
2024/02/15 08:12:39;;;;;;;13.93;8.40;;;;;;;10.86;50.59;100593.31;5030233;28;20171;-79
2024/02/15 08:15:04;;;;;;;11.90;7.47;;;;;;;10.72;50.94;100591.69;5029754;28;20046;-79
2024/02/15 08:17:30;;;;;;;19.92;9.65;;;;;;;11.05;51.00;100622.84;5029795;28;20026;-79
2024/02/15 08:19:55;;;;;;;11.23;7.13;;;;;;;10.92;50.93;100599.69;5029904;28;20108;-79
2024/02/15 08:22:23;;;;;;;12.88;7.53;;;;;;;11.11;51.11;100603.34;5029739;28;20057;-79
2024/02/15 08:24:52;;;;;;;10.50;6.90;;;;;;;10.97;50.39;100597.22;5029052;28;20033;-79
2024/02/15 08:27:17;;;;;;;10.60;6.82;;;;;;;10.94;49.82;100610.97;5013252;28;20423;-79
2024/02/15 08:29:43;;;;;;;12.93;7.95;;;;;;;10.52;49.86;100607.75;5020449;28;20036;-79
2024/02/15 08:32:08;;;;;;;10.10;7.18;;;;;;;10.68;51.04;100617.16;5029362;28;20115;-78
2024/02/15 08:34:33;;;;;;;10.93;6.55;;;;;;;10.98;50.20;100617.53;5029607;28;20029;-79
2024/02/15 08:36:59;;;;;;;11.45;7.22;;;;;;;11.17;50.52;100597.16;5029678;28;20033;-78
2024/02/15 08:39:24;;;;;;;13.40;7.18;;;;;;;11.41;49.11;100610.88;5026393;28;20036;-79
2024/02/15 08:41:53;;;;;;;15.82;9.00;;;;;;;11.57;49.49;100615.72;5026581;28;20030;-78
2024/02/15 08:44:19;;;;;;;11.88;7.60;;;;;;;11.35;48.74;100593.81;5037926;28;20029;-78
2024/02/15 08:46:44;;;;;;;13.02;6.60;;;;;;;11.28;48.95;100593.03;5035425;28;20029;-78
2024/02/15 08:49:13;;;;;;;11.20;6.97;;;;;;;11.15;47.99;100612.56;5028862;28;20489;-79
2024/02/15 08:51:40;;;;;;;12.77;7.40;;;;;;;11.49;48.79;100615.97;5014542;28;20125;-78
2024/02/15 08:54:06;;;;;;;10.35;6.72;;;;;;;11.40;48.69;100582.50;5018390;28;20034;-78
2024/02/15 08:56:33;;;;;;;11.63;6.65;;;;;;;11.58;49.08;100614.69;5027021;28;20025;-79
2024/02/15 08:58:59;;;;;;;13.10;7.55;;;;;;;11.80;47.50;100604.50;5029314;28;20034;-80
2024/02/15 09:01:26;;;;;;;10.43;6.18;;;;;;;12.02;46.81;100607.72;5035563;28;20109;-80
2024/02/15 09:03:58;;;;;;;11.60;7.28;;;;;;;11.92;47.95;100623.41;5041436;28;20054;-79
2024/02/15 09:06:26;;;;;;;13.88;6.95;;;;;;;11.64;47.71;100597.81;5048350;28;20068;-80
2024/02/15 09:08:51;;;;;;;9.38;5.93;;;;;;;11.79;48.01;100594.03;5048312;28;20060;-79
2024/02/15 09:11:17;;;;;;;10.98;6.25;;;;;;;11.93;47.08;100593.00;5031155;28;20144;-79
2024/02/15 09:13:42;;;;;;;16.65;9.55;;;;;;;11.91;46.43;100587.03;5027450;28;20221;-79
2024/02/15 09:16:08;;;;;;;25.40;14.02;;;;;;;11.97;47.87;100591.53;5030624;28;20056;-80
2024/02/15 09:18:33;;;;;;;12.13;7.63;;;;;;;12.35;47.82;100579.13;5036922;28;20017;-79
2024/02/15 09:20:59;;;;;;;12.18;6.70;;;;;;;12.54;45.33;100593.34;5035748;28;20040;-79
2024/02/15 09:23:25;;;;;;;12.45;7.80;;;;;;;12.21;45.76;100570.38;5037804;28;20033;-79
2024/02/15 09:25:53;;;;;;;20.27;11.85;;;;;;;12.39;45.86;100581.13;5028285;28;20068;-80
2024/02/15 09:28:24;;;;;;;19.70;10.05;;;;;;;12.66;45.00;100596.97;5029459;28;20469;-79
2024/02/15 09:30:51;;;;;;;21.80;12.13;;;;;;;13.20;45.79;100582.00;5028361;28;20068;-79
2024/02/15 09:33:19;;;;;;;24.23;17.25;;;;;;;13.02;44.58;100592.72;5027456;28;20474;-79
2024/02/15 09:35:45;;;;;;;25.40;14.45;;;;;;;12.65;45.56;100596.16;5059937;28;20042;-79
2024/02/15 09:38:10;;;;;;;20.55;13.23;;;;;;;12.69;45.44;100580.47;5012031;28;20033;-79
2024/02/15 09:40:36;;;;;;;21.50;13.98;;;;;;;12.88;45.67;100578.63;5018361;28;20473;-79
2024/02/15 09:43:01;;;;;;;22.13;13.02;;;;;;;12.88;46.25;100567.13;5027460;28;20120;-79
2024/02/15 09:45:27;;;;;;;17.98;10.38;;;;;;;12.99;45.29;100547.63;5028305;28;20057;-78
2024/02/15 09:47:53;;;;;;;14.70;9.23;;;;;;;13.15;44.45;100551.56;5026265;28;20410;-78
2024/02/15 09:50:19;;;;;;;24.88;14.52;;;;;;;13.26;44.21;100538.25;5034721;28;20036;-79
2024/02/15 09:52:49;;;;;;;21.48;13.32;;;;;;;13.07;44.23;100566.88;5027749;28;20038;-79
2024/02/15 09:55:14;;;;;;;21.13;13.38;;;;;;;13.41;44.05;100555.84;5032240;28;20032;-79
2024/02/15 09:57:44;;;;;;;19.70;12.40;;;;;;;13.10;45.04;100546.06;5037107;28;20056;-79
2024/02/15 10:00:15;;;;;;;20.65;12.38;;;;;;;13.64;45.27;100566.66;5034521;28;20508;-80
2024/02/15 10:02:44;;;;;;;21.30;12.77;;;;;;;13.50;42.80;100548.28;5038540;28;20037;-79
2024/02/15 10:05:11;;;;;;;18.35;10.98;;;;;;;13.82;43.42;100567.66;5037493;28;20084;-79
2024/02/15 10:07:38;;;;;;;29.42;16.13;;;;;;;13.73;42.73;100550.25;5033974;28;20033;-79
2024/02/15 10:10:17;;;;;;;21.88;12.05;;;;;;;13.66;42.97;100559.19;5028896;28;20037;-79
2024/02/15 10:12:48;;;;;;;17.35;10.52;;;;;;;13.99;40.94;100546.38;5008058;28;20069;-78
2024/02/15 10:15:31;;;;;;;17.15;9.48;;;;;;;13.76;42.91;100533.72;5007898;28;20046;-79
2024/02/15 10:18:01;;;;;;;13.80;8.85;;;;;;;14.02;42.03;100530.63;5017563;28;20060;-79
2024/02/15 10:20:27;;;;;;;10.68;7.05;;;;;;;14.34;41.92;100549.09;5027360;28;20037;-79
2024/02/15 10:22:58;;;;;;;14.57;8.75;;;;;;;13.88;42.53;100539.94;5027698;28;20090;-79
2024/02/15 10:25:26;;;;;;;11.13;6.78;;;;;;;13.80;41.88;100522.31;5027968;28;20048;-79
2024/02/15 10:28:01;;;;;;;;;;;;;;;13.91;43.06;100531.41;5028031;28;20030;-79
2024/02/15 10:30:27;;;;;;;11.10;6.32;;;;;;;13.51;41.88;100529.31;5025963;28;20298;-79
2024/02/15 10:32:52;;;;;;;9.63;6.10;;;;;;;13.41;41.79;100515.66;5025792;28;20026;-80
2024/02/15 10:35:21;;;;;;;11.48;7.32;;;;;;;14.14;42.79;100513.72;5027463;28;20025;-79
2024/02/15 10:37:51;;;;;;;9.88;6.25;;;;;;;14.49;41.02;100537.94;5027022;28;20037;-78
2024/02/15 10:40:23;;;;;;;9.45;6.43;;;;;;;13.65;41.40;100493.25;5027191;28;20021;-79
2024/02/15 10:42:51;;;;;;;10.63;6.22;;;;;;;13.68;41.85;100528.69;5025578;28;20033;-79
2024/02/15 10:45:20;;;;;;;;;;;;;;;13.69;42.76;100530.31;5027916;28;20021;-80
2024/02/15 10:47:49;;;;;;;14.27;7.65;;;;;;;13.91;41.75;100522.56;5027162;28;19917;-79
2024/02/15 10:50:16;;;;;;;11.48;7.03;;;;;;;13.74;42.12;100517.06;5027264;28;20029;-79
2024/02/15 10:53:08;;;;;;;13.45;7.03;;;;;;;13.93;42.44;100509.75;5026167;28;20032;-77
2024/02/15 10:56:04;;;;;;;10.88;5.53;;;;;;;14.09;41.70;100508.25;5032616;28;20107;-80
2024/02/15 10:58:35;;;;;;;10.48;6.22;;;;;;;13.66;42.77;100489.50;5026045;28;20548;-79
2024/02/15 11:01:03;;;;;;;10.70;6.43;;;;;;;14.01;43.13;100496.81;5037326;28;20052;-79
2024/02/15 11:03:52;;;;;;;;;;;;;;;14.63;41.63;100511.72;5041263;28;20472;-79
2024/02/15 11:06:21;;;;;;;12.15;5.53;;;;;;;14.35;40.20;100501.66;5048830;28;20359;-79
2024/02/15 11:08:48;;;;;;;7.90;5.38;;;;;;;14.47;42.66;100505.94;5035489;28;20038;-79
2024/02/15 11:11:14;;;;;;;9.30;4.83;;;;;;;14.55;41.85;100490.56;5027457;28;20056;-80
2024/02/15 11:13:42;;;;;;;9.35;5.50;;;;;;;14.52;40.49;100512.47;5025605;28;20314;-78
2024/02/15 11:16:10;;;;;;;9.88;5.88;;;;;;;14.21;42.36;100474.22;5026787;28;20049;-79
2024/02/15 11:18:48;;;;;;;9.63;5.75;;;;;;;14.52;41.95;100499.88;5026929;28;20044;-79
2024/02/15 11:21:15;;;;;;;9.38;6.10;;;;;;;14.47;40.36;100505.94;5027921;28;20075;-79
2024/02/15 11:23:41;;;;;;;10.18;5.93;;;;;;;14.29;40.56;100508.75;5026951;28;20035;-78
2024/02/15 11:26:48;;;;;;;9.15;5.88;;;;;;;14.04;43.17;100503.59;5027529;28;20026;-79
2024/02/15 11:29:51;;;;;;;9.27;5.47;;;;;;;14.18;41.74;100512.22;5031001;28;20029;-80
2024/02/15 11:32:47;;;;;;;13.18;10.20;;;;;;;14.24;40.48;100479.94;5029926;28;20025;-79
2024/02/15 11:35:13;;;;;;;9.57;5.95;;;;;;;14.83;40.74;100504.09;5030780;28;20025;-78
2024/02/15 11:38:14;;;;;;;9.52;5.15;;;;;;;14.92;41.45;100490.31;5029684;28;20029;-79
2024/02/15 11:40:41;;;;;;;7.78;5.35;;;;;;;14.74;40.82;100485.91;5029861;28;20564;-78